sensor_id;sensor_type;location;lat;lon;timestamp;P1;durP1;ratioP1;P2;durP2;ratioP2
46090;SDS011;31826;53.572;10.170;2023-03-15T00:01:12;6.13;;;1.75;;
46090;SDS011;31826;53.572;10.170;2023-03-15T00:03:40;5.30;;;1.50;;
46090;SDS011;31826;53.572;10.170;2023-03-15T00:06:07;6.00;;;1.33;;
46090;SDS011;31826;53.572;10.170;2023-03-15T00:08:33;5.00;;;1.20;;
46090;SDS011;31826;53.572;10.170;2023-03-15T00:10:59;4.87;;;1.50;;
46090;SDS011;31826;53.572;10.170;2023-03-15T00:13:25;3.17;;;1.20;;
46090;SDS011;31826;53.572;10.170;2023-03-15T00:15:52;3.70;;;1.07;;
46090;SDS011;31826;53.572;10.170;2023-03-15T00:18:21;2.97;;;1.20;;
46090;SDS011;31826;53.572;10.170;2023-03-15T00:20:47;6.10;;;1.20;;
46090;SDS011;31826;53.572;10.170;2023-03-15T00:23:13;3.50;;;1.20;;
46090;SDS011;31826;53.572;10.170;2023-03-15T00:25:42;3.80;;;1.10;;
46090;SDS011;31826;53.572;10.170;2023-03-15T00:28:09;3.33;;;1.17;;
46090;SDS011;31826;53.572;10.170;2023-03-15T00:30:35;2.42;;;1.20;;
46090;SDS011;31826;53.572;10.170;2023-03-15T00:33:00;4.18;;;1.30;;
46090;SDS011;31826;53.572;10.170;2023-03-15T00:35:29;3.33;;;1.10;;
46090;SDS011;31826;53.572;10.170;2023-03-15T00:37:56;2.95;;;1.02;;
46090;SDS011;31826;53.572;10.170;2023-03-15T00:40:22;2.80;;;1.20;;
46090;SDS011;31826;53.572;10.170;2023-03-15T00:42:49;5.72;;;1.40;;
46090;SDS011;31826;53.572;10.170;2023-03-15T00:45:16;5.88;;;1.40;;
46090;SDS011;31826;53.572;10.170;2023-03-15T00:47:44;3.83;;;1.25;;
46090;SDS011;31826;53.572;10.170;2023-03-15T00:50:12;2.55;;;1.33;;
46090;SDS011;31826;53.572;10.170;2023-03-15T00:52:38;2.97;;;1.20;;
46090;SDS011;31826;53.572;10.170;2023-03-15T00:55:04;4.37;;;1.33;;
46090;SDS011;31826;53.572;10.170;2023-03-15T00:57:31;4.07;;;1.55;;
46090;SDS011;31826;53.572;10.170;2023-03-15T00:59:58;3.40;;;1.30;;
46090;SDS011;31826;53.572;10.170;2023-03-15T01:02:24;7.90;;;1.70;;
46090;SDS011;31826;53.572;10.170;2023-03-15T01:04:49;8.00;;;1.60;;
46090;SDS011;31826;53.572;10.170;2023-03-15T01:07:15;2.97;;;1.30;;
46090;SDS011;31826;53.572;10.170;2023-03-15T01:09:41;2.53;;;1.30;;
46090;SDS011;31826;53.572;10.170;2023-03-15T01:12:08;4.90;;;1.65;;
46090;SDS011;31826;53.572;10.170;2023-03-15T01:14:34;6.53;;;1.80;;
46090;SDS011;31826;53.572;10.170;2023-03-15T01:17:01;3.83;;;1.33;;
46090;SDS011;31826;53.572;10.170;2023-03-15T01:19:27;5.53;;;1.63;;
46090;SDS011;31826;53.572;10.170;2023-03-15T01:21:53;6.32;;;1.83;;
46090;SDS011;31826;53.572;10.170;2023-03-15T01:24:19;7.00;;;1.90;;
46090;SDS011;31826;53.572;10.170;2023-03-15T01:26:44;6.53;;;2.00;;
46090;SDS011;31826;53.572;10.170;2023-03-15T01:29:10;5.63;;;1.80;;
46090;SDS011;31826;53.572;10.170;2023-03-15T01:31:37;7.20;;;2.13;;
46090;SDS011;31826;53.572;10.170;2023-03-15T01:34:03;5.83;;;2.00;;
46090;SDS011;31826;53.572;10.170;2023-03-15T01:36:29;5.85;;;2.10;;
46090;SDS011;31826;53.572;10.170;2023-03-15T01:38:55;5.65;;;1.52;;
46090;SDS011;31826;53.572;10.170;2023-03-15T01:41:21;5.10;;;1.90;;
46090;SDS011;31826;53.572;10.170;2023-03-15T01:43:48;4.70;;;1.48;;
46090;SDS011;31826;53.572;10.170;2023-03-15T01:52:02;4.40;;;1.67;;
46090;SDS011;31826;53.572;10.170;2023-03-15T01:54:42;7.50;;;1.90;;
46090;SDS011;31826;53.572;10.170;2023-03-15T01:57:32;5.57;;;1.83;;
46090;SDS011;31826;53.572;10.170;2023-03-15T02:00:09;6.60;;;1.92;;
46090;SDS011;31826;53.572;10.170;2023-03-15T02:02:40;4.97;;;1.58;;
46090;SDS011;31826;53.572;10.170;2023-03-15T02:05:16;3.90;;;1.60;;
46090;SDS011;31826;53.572;10.170;2023-03-15T02:07:48;5.85;;;1.80;;
46090;SDS011;31826;53.572;10.170;2023-03-15T02:10:16;7.85;;;2.30;;
46090;SDS011;31826;53.572;10.170;2023-03-15T02:12:49;5.45;;;2.03;;
46090;SDS011;31826;53.572;10.170;2023-03-15T02:15:17;6.75;;;2.25;;
46090;SDS011;31826;53.572;10.170;2023-03-15T02:17:44;5.95;;;2.50;;
46090;SDS011;31826;53.572;10.170;2023-03-15T02:23:02;7.88;;;2.47;;
46090;SDS011;31826;53.572;10.170;2023-03-15T02:28:04;7.25;;;2.47;;
46090;SDS011;31826;53.572;10.170;2023-03-15T02:30:31;6.80;;;2.65;;
46090;SDS011;31826;53.572;10.170;2023-03-15T02:32:58;6.38;;;2.40;;
46090;SDS011;31826;53.572;10.170;2023-03-15T02:35:26;5.10;;;2.30;;
46090;SDS011;31826;53.572;10.170;2023-03-15T02:37:55;4.78;;;2.28;;
46090;SDS011;31826;53.572;10.170;2023-03-15T02:40:22;4.72;;;2.08;;
46090;SDS011;31826;53.572;10.170;2023-03-15T02:42:53;5.38;;;2.33;;
46090;SDS011;31826;53.572;10.170;2023-03-15T02:45:23;5.28;;;2.03;;
46090;SDS011;31826;53.572;10.170;2023-03-15T02:47:50;5.47;;;2.08;;
46090;SDS011;31826;53.572;10.170;2023-03-15T02:50:16;6.43;;;2.47;;
46090;SDS011;31826;53.572;10.170;2023-03-15T02:52:42;5.07;;;2.33;;
46090;SDS011;31826;53.572;10.170;2023-03-15T02:55:07;4.70;;;2.30;;
46090;SDS011;31826;53.572;10.170;2023-03-15T02:57:33;5.20;;;2.40;;
46090;SDS011;31826;53.572;10.170;2023-03-15T02:59:59;6.10;;;2.03;;
46090;SDS011;31826;53.572;10.170;2023-03-15T03:02:31;5.35;;;2.10;;
46090;SDS011;31826;53.572;10.170;2023-03-15T03:04:57;3.85;;;1.90;;
46090;SDS011;31826;53.572;10.170;2023-03-15T03:07:22;5.70;;;2.30;;
46090;SDS011;31826;53.572;10.170;2023-03-15T03:09:48;5.00;;;2.17;;
46090;SDS011;31826;53.572;10.170;2023-03-15T03:12:14;4.25;;;2.22;;
46090;SDS011;31826;53.572;10.170;2023-03-15T03:14:39;4.40;;;2.10;;
46090;SDS011;31826;53.572;10.170;2023-03-15T03:17:07;3.38;;;1.73;;
46090;SDS011;31826;53.572;10.170;2023-03-15T03:19:33;5.23;;;1.67;;
46090;SDS011;31826;53.572;10.170;2023-03-15T03:21:58;5.93;;;1.90;;
46090;SDS011;31826;53.572;10.170;2023-03-15T03:24:24;8.50;;;2.37;;
46090;SDS011;31826;53.572;10.170;2023-03-15T03:26:50;4.17;;;1.90;;
46090;SDS011;31826;53.572;10.170;2023-03-15T03:29:15;4.47;;;1.87;;
46090;SDS011;31826;53.572;10.170;2023-03-15T03:31:41;5.87;;;2.30;;
46090;SDS011;31826;53.572;10.170;2023-03-15T03:34:08;4.80;;;2.30;;
46090;SDS011;31826;53.572;10.170;2023-03-15T03:36:36;6.47;;;2.47;;
46090;SDS011;31826;53.572;10.170;2023-03-15T03:39:02;6.00;;;2.10;;
46090;SDS011;31826;53.572;10.170;2023-03-15T03:41:28;5.57;;;2.25;;
46090;SDS011;31826;53.572;10.170;2023-03-15T03:43:54;4.37;;;2.20;;
46090;SDS011;31826;53.572;10.170;2023-03-15T03:46:19;3.70;;;1.80;;
46090;SDS011;31826;53.572;10.170;2023-03-15T03:48:45;5.47;;;2.00;;
46090;SDS011;31826;53.572;10.170;2023-03-15T03:51:11;5.28;;;2.30;;
46090;SDS011;31826;53.572;10.170;2023-03-15T03:53:36;5.97;;;1.90;;
46090;SDS011;31826;53.572;10.170;2023-03-15T03:56:05;5.50;;;2.20;;
46090;SDS011;31826;53.572;10.170;2023-03-15T03:58:32;4.07;;;1.90;;
46090;SDS011;31826;53.572;10.170;2023-03-15T04:00:57;4.45;;;1.98;;
46090;SDS011;31826;53.572;10.170;2023-03-15T04:03:24;4.90;;;1.90;;
46090;SDS011;31826;53.572;10.170;2023-03-15T04:05:53;4.43;;;2.00;;
46090;SDS011;31826;53.572;10.170;2023-03-15T04:08:23;5.25;;;1.98;;
46090;SDS011;31826;53.572;10.170;2023-03-15T04:10:54;3.75;;;1.58;;
46090;SDS011;31826;53.572;10.170;2023-03-15T04:13:21;4.47;;;2.25;;
46090;SDS011;31826;53.572;10.170;2023-03-15T04:15:48;4.15;;;1.90;;
46090;SDS011;31826;53.572;10.170;2023-03-15T04:18:15;6.13;;;2.08;;
46090;SDS011;31826;53.572;10.170;2023-03-15T04:20:42;6.38;;;2.40;;
46090;SDS011;31826;53.572;10.170;2023-03-15T04:23:11;4.75;;;2.22;;
46090;SDS011;31826;53.572;10.170;2023-03-15T04:25:43;4.55;;;1.52;;
46090;SDS011;31826;53.572;10.170;2023-03-15T04:28:11;3.67;;;1.88;;
46090;SDS011;31826;53.572;10.170;2023-03-15T04:30:37;4.53;;;2.00;;
46090;SDS011;31826;53.572;10.170;2023-03-15T04:33:03;6.35;;;2.00;;
46090;SDS011;31826;53.572;10.170;2023-03-15T04:35:29;4.55;;;1.90;;
46090;SDS011;31826;53.572;10.170;2023-03-15T04:37:56;5.03;;;1.92;;
46090;SDS011;31826;53.572;10.170;2023-03-15T04:40:23;4.85;;;2.00;;
46090;SDS011;31826;53.572;10.170;2023-03-15T04:42:49;4.25;;;1.98;;
46090;SDS011;31826;53.572;10.170;2023-03-15T04:45:16;6.68;;;1.80;;
46090;SDS011;31826;53.572;10.170;2023-03-15T04:47:42;5.05;;;2.50;;
46090;SDS011;31826;53.572;10.170;2023-03-15T04:50:08;5.10;;;2.30;;
46090;SDS011;31826;53.572;10.170;2023-03-15T04:52:34;7.60;;;2.70;;
46090;SDS011;31826;53.572;10.170;2023-03-15T04:55:00;5.20;;;2.10;;
46090;SDS011;31826;53.572;10.170;2023-03-15T04:57:25;5.10;;;2.00;;
46090;SDS011;31826;53.572;10.170;2023-03-15T04:59:51;6.90;;;2.00;;
46090;SDS011;31826;53.572;10.170;2023-03-15T05:02:17;5.83;;;2.00;;
46090;SDS011;31826;53.572;10.170;2023-03-15T05:04:42;4.87;;;2.10;;
46090;SDS011;31826;53.572;10.170;2023-03-15T05:07:08;5.67;;;2.10;;
46090;SDS011;31826;53.572;10.170;2023-03-15T05:09:34;4.13;;;1.60;;
46090;SDS011;31826;53.572;10.170;2023-03-15T05:12:04;5.05;;;1.95;;
46090;SDS011;31826;53.572;10.170;2023-03-15T05:14:31;4.13;;;1.80;;
46090;SDS011;31826;53.572;10.170;2023-03-15T05:16:57;5.68;;;2.38;;
46090;SDS011;31826;53.572;10.170;2023-03-15T05:19:24;9.48;;;2.60;;
46090;SDS011;31826;53.572;10.170;2023-03-15T05:21:50;9.20;;;2.50;;
46090;SDS011;31826;53.572;10.170;2023-03-15T05:24:16;7.80;;;2.80;;
46090;SDS011;31826;53.572;10.170;2023-03-15T05:26:42;9.35;;;3.17;;
46090;SDS011;31826;53.572;10.170;2023-03-15T05:29:11;8.80;;;3.47;;
46090;SDS011;31826;53.572;10.170;2023-03-15T05:31:37;9.65;;;3.40;;
46090;SDS011;31826;53.572;10.170;2023-03-15T05:34:03;10.75;;;3.92;;
46090;SDS011;31826;53.572;10.170;2023-03-15T05:36:30;14.73;;;4.47;;
46090;SDS011;31826;53.572;10.170;2023-03-15T05:38:56;11.50;;;4.35;;
46090;SDS011;31826;53.572;10.170;2023-03-15T05:41:22;11.68;;;4.60;;
46090;SDS011;31826;53.572;10.170;2023-03-15T05:43:48;12.57;;;4.85;;
46090;SDS011;31826;53.572;10.170;2023-03-15T05:46:14;13.50;;;5.30;;
46090;SDS011;31826;53.572;10.170;2023-03-15T05:48:40;14.80;;;5.35;;
46090;SDS011;31826;53.572;10.170;2023-03-15T05:51:06;14.03;;;5.17;;
46090;SDS011;31826;53.572;10.170;2023-03-15T05:53:32;14.60;;;5.13;;
46090;SDS011;31826;53.572;10.170;2023-03-15T05:55:58;12.17;;;5.53;;
46090;SDS011;31826;53.572;10.170;2023-03-15T05:58:24;14.23;;;5.38;;
46090;SDS011;31826;53.572;10.170;2023-03-15T06:00:49;11.75;;;5.47;;
46090;SDS011;31826;53.572;10.170;2023-03-15T06:03:15;12.40;;;4.90;;
46090;SDS011;31826;53.572;10.170;2023-03-15T06:05:41;15.13;;;5.30;;
46090;SDS011;31826;53.572;10.170;2023-03-15T06:08:07;15.93;;;6.10;;
46090;SDS011;31826;53.572;10.170;2023-03-15T06:10:32;12.32;;;5.38;;
46090;SDS011;31826;53.572;10.170;2023-03-15T06:12:58;15.05;;;5.75;;
46090;SDS011;31826;53.572;10.170;2023-03-15T06:15:24;12.52;;;5.95;;
46090;SDS011;31826;53.572;10.170;2023-03-15T06:17:50;14.37;;;5.93;;
46090;SDS011;31826;53.572;10.170;2023-03-15T06:20:16;12.43;;;5.03;;
46090;SDS011;31826;53.572;10.170;2023-03-15T06:22:42;13.73;;;5.45;;
46090;SDS011;31826;53.572;10.170;2023-03-15T06:25:08;14.00;;;5.70;;
46090;SDS011;31826;53.572;10.170;2023-03-15T06:27:34;13.13;;;5.30;;
46090;SDS011;31826;53.572;10.170;2023-03-15T06:29:59;11.77;;;5.00;;
46090;SDS011;31826;53.572;10.170;2023-03-15T06:32:25;12.02;;;5.50;;
46090;SDS011;31826;53.572;10.170;2023-03-15T06:34:51;15.52;;;5.75;;
46090;SDS011;31826;53.572;10.170;2023-03-15T06:37:17;13.15;;;5.05;;
46090;SDS011;31826;53.572;10.170;2023-03-15T06:39:43;11.93;;;5.22;;
46090;SDS011;31826;53.572;10.170;2023-03-15T06:42:09;10.52;;;4.47;;
46090;SDS011;31826;53.572;10.170;2023-03-15T06:44:38;11.93;;;5.80;;
46090;SDS011;31826;53.572;10.170;2023-03-15T06:47:04;13.18;;;6.20;;
46090;SDS011;31826;53.572;10.170;2023-03-15T06:49:30;14.75;;;5.90;;
46090;SDS011;31826;53.572;10.170;2023-03-15T06:51:56;15.57;;;6.20;;
46090;SDS011;31826;53.572;10.170;2023-03-15T06:54:22;15.80;;;6.15;;
46090;SDS011;31826;53.572;10.170;2023-03-15T06:56:48;18.77;;;7.43;;
46090;SDS011;31826;53.572;10.170;2023-03-15T06:59:14;15.43;;;6.93;;
46090;SDS011;31826;53.572;10.170;2023-03-15T07:01:39;15.17;;;6.73;;
46090;SDS011;31826;53.572;10.170;2023-03-15T07:04:06;18.98;;;7.15;;
46090;SDS011;31826;53.572;10.170;2023-03-15T07:06:32;17.25;;;7.20;;
46090;SDS011;31826;53.572;10.170;2023-03-15T07:08:58;16.20;;;7.13;;
46090;SDS011;31826;53.572;10.170;2023-03-15T07:11:23;17.20;;;7.78;;
46090;SDS011;31826;53.572;10.170;2023-03-15T07:13:49;17.13;;;7.47;;
46090;SDS011;31826;53.572;10.170;2023-03-15T07:16:15;14.90;;;6.25;;
46090;SDS011;31826;53.572;10.170;2023-03-15T07:18:41;16.00;;;6.85;;
46090;SDS011;31826;53.572;10.170;2023-03-15T07:21:06;13.60;;;6.28;;
46090;SDS011;31826;53.572;10.170;2023-03-15T07:23:32;17.87;;;7.17;;
46090;SDS011;31826;53.572;10.170;2023-03-15T07:25:58;17.33;;;6.93;;
46090;SDS011;31826;53.572;10.170;2023-03-15T07:28:25;15.30;;;7.00;;
46090;SDS011;31826;53.572;10.170;2023-03-15T07:30:52;15.35;;;6.80;;
46090;SDS011;31826;53.572;10.170;2023-03-15T07:33:22;12.67;;;5.67;;
46090;SDS011;31826;53.572;10.170;2023-03-15T07:35:49;12.45;;;5.53;;
46090;SDS011;31826;53.572;10.170;2023-03-15T07:38:17;12.65;;;5.25;;
46090;SDS011;31826;53.572;10.170;2023-03-15T07:40:43;12.18;;;5.03;;
46090;SDS011;31826;53.572;10.170;2023-03-15T07:43:09;11.23;;;4.85;;
46090;SDS011;31826;53.572;10.170;2023-03-15T07:45:35;14.02;;;5.03;;
46090;SDS011;31826;53.572;10.170;2023-03-15T07:48:00;10.88;;;4.65;;
46090;SDS011;31826;53.572;10.170;2023-03-15T07:50:26;12.80;;;4.40;;
46090;SDS011;31826;53.572;10.170;2023-03-15T07:52:52;9.68;;;3.60;;
46090;SDS011;31826;53.572;10.170;2023-03-15T07:55:18;10.55;;;3.40;;
46090;SDS011;31826;53.572;10.170;2023-03-15T07:57:43;11.30;;;3.70;;
46090;SDS011;31826;53.572;10.170;2023-03-15T08:00:09;9.60;;;3.40;;
46090;SDS011;31826;53.572;10.170;2023-03-15T08:02:37;10.63;;;3.30;;
46090;SDS011;31826;53.572;10.170;2023-03-15T08:05:03;8.55;;;3.47;;
46090;SDS011;31826;53.572;10.170;2023-03-15T08:07:30;8.63;;;3.90;;
46090;SDS011;31826;53.572;10.170;2023-03-15T08:09:55;8.03;;;3.13;;
46090;SDS011;31826;53.572;10.170;2023-03-15T08:12:25;9.50;;;3.00;;
46090;SDS011;31826;53.572;10.170;2023-03-15T08:14:51;10.17;;;3.13;;
46090;SDS011;31826;53.572;10.170;2023-03-15T08:17:17;7.43;;;3.00;;
46090;SDS011;31826;53.572;10.170;2023-03-15T08:19:43;9.40;;;3.00;;
46090;SDS011;31826;53.572;10.170;2023-03-15T08:22:09;8.43;;;3.65;;
46090;SDS011;31826;53.572;10.170;2023-03-15T08:24:35;12.30;;;3.40;;
46090;SDS011;31826;53.572;10.170;2023-03-15T08:27:01;12.20;;;4.40;;
46090;SDS011;31826;53.572;10.170;2023-03-15T08:29:27;8.38;;;3.00;;
46090;SDS011;31826;53.572;10.170;2023-03-15T08:31:53;7.70;;;2.40;;
46090;SDS011;31826;53.572;10.170;2023-03-15T08:34:19;4.27;;;1.80;;
46090;SDS011;31826;53.572;10.170;2023-03-15T08:36:46;5.07;;;1.73;;
46090;SDS011;31826;53.572;10.170;2023-03-15T08:39:12;5.65;;;2.20;;
46090;SDS011;31826;53.572;10.170;2023-03-15T08:41:38;5.10;;;2.00;;
46090;SDS011;31826;53.572;10.170;2023-03-15T08:44:05;6.57;;;1.83;;
46090;SDS011;31826;53.572;10.170;2023-03-15T08:46:30;4.18;;;2.08;;
46090;SDS011;31826;53.572;10.170;2023-03-15T08:48:57;5.05;;;2.00;;
46090;SDS011;31826;53.572;10.170;2023-03-15T08:51:23;4.05;;;1.75;;
46090;SDS011;31826;53.572;10.170;2023-03-15T08:53:50;7.13;;;1.80;;
46090;SDS011;31826;53.572;10.170;2023-03-15T08:56:17;3.40;;;1.65;;
46090;SDS011;31826;53.572;10.170;2023-03-15T08:58:43;4.75;;;1.70;;
46090;SDS011;31826;53.572;10.170;2023-03-15T09:01:10;4.33;;;1.77;;
46090;SDS011;31826;53.572;10.170;2023-03-15T09:03:36;3.45;;;1.33;;
46090;SDS011;31826;53.572;10.170;2023-03-15T09:06:02;5.22;;;1.40;;
46090;SDS011;31826;53.572;10.170;2023-03-15T09:08:28;3.22;;;1.70;;
46090;SDS011;31826;53.572;10.170;2023-03-15T09:10:54;4.88;;;1.83;;
46090;SDS011;31826;53.572;10.170;2023-03-15T09:13:21;5.05;;;1.90;;
46090;SDS011;31826;53.572;10.170;2023-03-15T09:15:49;5.85;;;1.60;;
46090;SDS011;31826;53.572;10.170;2023-03-15T09:18:15;3.00;;;1.50;;
46090;SDS011;31826;53.572;10.170;2023-03-15T09:20:41;3.83;;;1.60;;
46090;SDS011;31826;53.572;10.170;2023-03-15T09:23:07;4.30;;;1.60;;
46090;SDS011;31826;53.572;10.170;2023-03-15T09:25:32;5.30;;;1.60;;
46090;SDS011;31826;53.572;10.170;2023-03-15T09:28:00;3.47;;;1.48;;
46090;SDS011;31826;53.572;10.170;2023-03-15T09:30:27;3.53;;;1.55;;
46090;SDS011;31826;53.572;10.170;2023-03-15T09:32:53;2.43;;;1.40;;
46090;SDS011;31826;53.572;10.170;2023-03-15T09:35:19;2.80;;;1.27;;
46090;SDS011;31826;53.572;10.170;2023-03-15T09:37:45;3.15;;;1.10;;
46090;SDS011;31826;53.572;10.170;2023-03-15T09:40:19;4.00;;;1.17;;
46090;SDS011;31826;53.572;10.170;2023-03-15T09:42:54;3.33;;;1.20;;
46090;SDS011;31826;53.572;10.170;2023-03-15T09:51:21;4.03;;;1.42;;
46090;SDS011;31826;53.572;10.170;2023-03-15T09:54:12;3.43;;;1.50;;
46090;SDS011;31826;53.572;10.170;2023-03-15T09:56:52;4.03;;;1.10;;
46090;SDS011;31826;53.572;10.170;2023-03-15T09:59:18;4.63;;;1.20;;
46090;SDS011;31826;53.572;10.170;2023-03-15T10:01:46;5.50;;;1.13;;
46090;SDS011;31826;53.572;10.170;2023-03-15T10:06:53;3.90;;;1.40;;
46090;SDS011;31826;53.572;10.170;2023-03-15T10:09:22;3.97;;;1.10;;
46090;SDS011;31826;53.572;10.170;2023-03-15T10:17:00;4.07;;;1.30;;
46090;SDS011;31826;53.572;10.170;2023-03-15T10:27:23;5.00;;;1.60;;
46090;SDS011;31826;53.572;10.170;2023-03-15T10:30:00;4.97;;;1.30;;
46090;SDS011;31826;53.572;10.170;2023-03-15T10:32:36;4.55;;;1.27;;
46090;SDS011;31826;53.572;10.170;2023-03-15T10:35:09;5.90;;;1.60;;
46090;SDS011;31826;53.572;10.170;2023-03-15T10:37:40;4.45;;;1.40;;
46090;SDS011;31826;53.572;10.170;2023-03-15T10:40:06;5.38;;;1.40;;
46090;SDS011;31826;53.572;10.170;2023-03-15T10:42:44;6.15;;;1.60;;
46090;SDS011;31826;53.572;10.170;2023-03-15T10:45:18;7.28;;;1.70;;
46090;SDS011;31826;53.572;10.170;2023-03-15T10:47:46;8.27;;;2.17;;
46090;SDS011;31826;53.572;10.170;2023-03-15T10:50:16;6.22;;;1.70;;
46090;SDS011;31826;53.572;10.170;2023-03-15T10:52:53;6.47;;;1.50;;
46090;SDS011;31826;53.572;10.170;2023-03-15T10:55:30;11.15;;;2.83;;
46090;SDS011;31826;53.572;10.170;2023-03-15T10:57:58;3.05;;;1.13;;
46090;SDS011;31826;53.572;10.170;2023-03-15T11:00:36;3.47;;;1.42;;
46090;SDS011;31826;53.572;10.170;2023-03-15T11:03:03;5.65;;;1.25;;
46090;SDS011;31826;53.572;10.170;2023-03-15T11:05:32;9.88;;;2.42;;
46090;SDS011;31826;53.572;10.170;2023-03-15T11:08:04;3.47;;;2.03;;
46090;SDS011;31826;53.572;10.170;2023-03-15T11:10:36;7.47;;;1.60;;
46090;SDS011;31826;53.572;10.170;2023-03-15T11:13:16;4.15;;;1.42;;
46090;SDS011;31826;53.572;10.170;2023-03-15T11:15:49;4.10;;;1.30;;
46090;SDS011;31826;53.572;10.170;2023-03-15T11:21:07;1.40;;;0.80;;
46090;SDS011;31826;53.572;10.170;2023-03-15T11:23:38;1.70;;;0.88;;
46090;SDS011;31826;53.572;10.170;2023-03-15T11:26:11;2.50;;;1.20;;
46090;SDS011;31826;53.572;10.170;2023-03-15T11:28:44;3.90;;;1.20;;
46090;SDS011;31826;53.572;10.170;2023-03-15T11:31:13;3.28;;;1.00;;
46090;SDS011;31826;53.572;10.170;2023-03-15T11:33:44;1.48;;;0.90;;
46090;SDS011;31826;53.572;10.170;2023-03-15T11:36:18;4.38;;;0.90;;
46090;SDS011;31826;53.572;10.170;2023-03-15T11:38:47;1.10;;;0.80;;
46090;SDS011;31826;53.572;10.170;2023-03-15T11:47:07;3.00;;;0.90;;
46090;SDS011;31826;53.572;10.170;2023-03-15T11:49:52;3.05;;;1.10;;
46090;SDS011;31826;53.572;10.170;2023-03-15T11:52:23;2.58;;;1.00;;
46090;SDS011;31826;53.572;10.170;2023-03-15T11:54:51;4.70;;;1.60;;
46090;SDS011;31826;53.572;10.170;2023-03-15T11:59:53;5.00;;;1.00;;
46090;SDS011;31826;53.572;10.170;2023-03-15T12:04:51;7.15;;;1.80;;
46090;SDS011;31826;53.572;10.170;2023-03-15T12:25:30;4.93;;;1.00;;
46090;SDS011;31826;53.572;10.170;2023-03-15T12:28:02;2.67;;;1.10;;
46090;SDS011;31826;53.572;10.170;2023-03-15T12:30:37;3.75;;;1.20;;
46090;SDS011;31826;53.572;10.170;2023-03-15T12:33:15;4.93;;;1.07;;
46090;SDS011;31826;53.572;10.170;2023-03-15T12:35:44;4.85;;;0.95;;
46090;SDS011;31826;53.572;10.170;2023-03-15T12:38:11;5.53;;;1.17;;
46090;SDS011;31826;53.572;10.170;2023-03-15T12:43:33;4.47;;;1.40;;
46090;SDS011;31826;53.572;10.170;2023-03-15T12:46:01;4.53;;;1.20;;
46090;SDS011;31826;53.572;10.170;2023-03-15T12:48:27;5.88;;;1.42;;
46090;SDS011;31826;53.572;10.170;2023-03-15T12:50:55;4.28;;;1.00;;
46090;SDS011;31826;53.572;10.170;2023-03-15T12:58:50;4.22;;;1.20;;
46090;SDS011;31826;53.572;10.170;2023-03-15T13:01:19;2.75;;;1.20;;
46090;SDS011;31826;53.572;10.170;2023-03-15T13:03:51;3.78;;;0.80;;
46090;SDS011;31826;53.572;10.170;2023-03-15T13:06:31;3.40;;;0.90;;
46090;SDS011;31826;53.572;10.170;2023-03-15T13:12:23;5.18;;;1.92;;
46090;SDS011;31826;53.572;10.170;2023-03-15T13:15:02;3.53;;;1.10;;
46090;SDS011;31826;53.572;10.170;2023-03-15T13:17:54;3.13;;;1.20;;
46090;SDS011;31826;53.572;10.170;2023-03-15T13:20:28;3.25;;;1.05;;
46090;SDS011;31826;53.572;10.170;2023-03-15T13:28:37;7.15;;;1.52;;
46090;SDS011;31826;53.572;10.170;2023-03-15T13:31:16;4.70;;;1.33;;
46090;SDS011;31826;53.572;10.170;2023-03-15T13:33:47;4.18;;;1.10;;
46090;SDS011;31826;53.572;10.170;2023-03-15T13:36:22;6.15;;;1.13;;
46090;SDS011;31826;53.572;10.170;2023-03-15T13:38:53;5.63;;;1.30;;
46090;SDS011;31826;53.572;10.170;2023-03-15T13:43:52;3.92;;;1.08;;
46090;SDS011;31826;53.572;10.170;2023-03-15T13:46:24;3.05;;;0.98;;
46090;SDS011;31826;53.572;10.170;2023-03-15T13:48:52;6.60;;;1.23;;
46090;SDS011;31826;53.572;10.170;2023-03-15T13:51:32;5.70;;;1.20;;
46090;SDS011;31826;53.572;10.170;2023-03-15T13:54:03;7.13;;;1.25;;
46090;SDS011;31826;53.572;10.170;2023-03-15T13:56:52;4.75;;;1.10;;
46090;SDS011;31826;53.572;10.170;2023-03-15T13:59:23;4.00;;;1.20;;
46090;SDS011;31826;53.572;10.170;2023-03-15T14:02:17;8.75;;;1.83;;
46090;SDS011;31826;53.572;10.170;2023-03-15T14:04:51;9.23;;;1.77;;
46090;SDS011;31826;53.572;10.170;2023-03-15T14:13:14;7.33;;;1.33;;
46090;SDS011;31826;53.572;10.170;2023-03-15T14:15:46;5.07;;;1.15;;
46090;SDS011;31826;53.572;10.170;2023-03-15T14:18:14;5.93;;;1.40;;
46090;SDS011;31826;53.572;10.170;2023-03-15T14:21:00;7.68;;;1.30;;
46090;SDS011;31826;53.572;10.170;2023-03-15T14:23:30;7.60;;;1.50;;
46090;SDS011;31826;53.572;10.170;2023-03-15T14:26:10;6.70;;;1.50;;
46090;SDS011;31826;53.572;10.170;2023-03-15T14:28:47;7.55;;;1.80;;
46090;SDS011;31826;53.572;10.170;2023-03-15T14:31:28;4.60;;;1.23;;
46090;SDS011;31826;53.572;10.170;2023-03-15T14:42:43;4.90;;;1.10;;
46090;SDS011;31826;53.572;10.170;2023-03-15T14:45:09;7.80;;;1.50;;
46090;SDS011;31826;53.572;10.170;2023-03-15T14:47:36;3.40;;;1.27;;
46090;SDS011;31826;53.572;10.170;2023-03-15T14:50:12;7.10;;;1.60;;
46090;SDS011;31826;53.572;10.170;2023-03-15T14:52:41;5.05;;;1.73;;
46090;SDS011;31826;53.572;10.170;2023-03-15T14:55:11;5.50;;;1.55;;
46090;SDS011;31826;53.572;10.170;2023-03-15T14:57:38;11.10;;;2.17;;
46090;SDS011;31826;53.572;10.170;2023-03-15T15:00:04;7.57;;;2.13;;
46090;SDS011;31826;53.572;10.170;2023-03-15T15:02:33;7.03;;;1.40;;
46090;SDS011;31826;53.572;10.170;2023-03-15T15:05:01;6.50;;;1.63;;
46090;SDS011;31826;53.572;10.170;2023-03-15T15:07:28;5.97;;;1.40;;
46090;SDS011;31826;53.572;10.170;2023-03-15T15:09:54;5.15;;;1.52;;
46090;SDS011;31826;53.572;10.170;2023-03-15T15:12:19;16.50;;;4.13;;
46090;SDS011;31826;53.572;10.170;2023-03-15T15:14:45;3.78;;;1.25;;
46090;SDS011;31826;53.572;10.170;2023-03-15T15:17:11;4.00;;;1.40;;
46090;SDS011;31826;53.572;10.170;2023-03-15T15:19:36;6.15;;;1.80;;
46090;SDS011;31826;53.572;10.170;2023-03-15T15:22:02;7.43;;;1.70;;
46090;SDS011;31826;53.572;10.170;2023-03-15T15:24:29;6.32;;;1.48;;
46090;SDS011;31826;53.572;10.170;2023-03-15T15:26:55;5.38;;;1.30;;
46090;SDS011;31826;53.572;10.170;2023-03-15T15:29:21;6.70;;;1.80;;
46090;SDS011;31826;53.572;10.170;2023-03-15T15:31:46;5.22;;;1.50;;
46090;SDS011;31826;53.572;10.170;2023-03-15T15:34:12;7.93;;;1.60;;
46090;SDS011;31826;53.572;10.170;2023-03-15T15:36:40;5.83;;;1.20;;
46090;SDS011;31826;53.572;10.170;2023-03-15T15:39:12;4.30;;;1.40;;
46090;SDS011;31826;53.572;10.170;2023-03-15T15:41:51;10.52;;;2.20;;
46090;SDS011;31826;53.572;10.170;2023-03-15T15:44:18;6.32;;;1.30;;
46090;SDS011;31826;53.572;10.170;2023-03-15T15:46:46;6.43;;;1.48;;
46090;SDS011;31826;53.572;10.170;2023-03-15T15:49:11;12.45;;;2.22;;
46090;SDS011;31826;53.572;10.170;2023-03-15T15:51:38;8.85;;;1.95;;
46090;SDS011;31826;53.572;10.170;2023-03-15T15:54:11;9.60;;;2.20;;
46090;SDS011;31826;53.572;10.170;2023-03-15T15:56:50;8.77;;;2.00;;
46090;SDS011;31826;53.572;10.170;2023-03-15T15:59:18;6.63;;;1.60;;
46090;SDS011;31826;53.572;10.170;2023-03-15T16:01:44;7.30;;;2.15;;
46090;SDS011;31826;53.572;10.170;2023-03-15T16:04:13;6.67;;;1.80;;
46090;SDS011;31826;53.572;10.170;2023-03-15T16:06:38;7.30;;;1.57;;
46090;SDS011;31826;53.572;10.170;2023-03-15T16:09:05;5.90;;;1.70;;
46090;SDS011;31826;53.572;10.170;2023-03-15T16:11:32;8.95;;;1.60;;
46090;SDS011;31826;53.572;10.170;2023-03-15T16:13:58;7.35;;;1.70;;
46090;SDS011;31826;53.572;10.170;2023-03-15T16:16:25;8.13;;;1.92;;